createdAt,value
2022-11-21T00:01:17.104Z,16.60
2022-11-21T00:03:43.915Z,16.83
2022-11-21T00:06:10.792Z,16.77
2022-11-21T00:08:37.595Z,17.15
2022-11-21T00:11:04.440Z,16.15
2022-11-21T00:13:31.211Z,15.85
2022-11-21T00:16:07.122Z,15.05
2022-11-21T00:18:35.242Z,15.18
2022-11-21T00:21:16.688Z,15.70
2022-11-21T00:23:44.649Z,15.85
2022-11-21T00:26:13.843Z,15.50
2022-11-21T00:28:40.980Z,15.35
2022-11-21T00:31:08.423Z,15.18
2022-11-21T00:33:36.820Z,15.98
2022-11-21T00:36:10.129Z,15.45
2022-11-21T00:38:37.401Z,15.68
2022-11-21T00:41:04.642Z,16.17
2022-11-21T00:43:31.600Z,16.08
2022-11-21T00:46:01.344Z,15.93
2022-11-21T00:48:29.411Z,15.82
2022-11-21T00:50:56.438Z,14.98
2022-11-21T00:53:23.203Z,16.25
2022-11-21T00:55:49.985Z,15.23
2022-11-21T00:58:16.741Z,15.00
2022-11-21T01:00:43.652Z,15.52
2022-11-21T01:03:10.499Z,15.57
2022-11-21T01:05:37.484Z,15.70
2022-11-21T01:08:04.576Z,15.32
2022-11-21T01:10:31.390Z,15.50
2022-11-21T01:12:58.225Z,15.07
2022-11-21T01:15:25.020Z,16.63
2022-11-21T01:17:51.840Z,16.15
2022-11-21T01:20:18.595Z,14.82
2022-11-21T01:22:45.352Z,14.75
2022-11-21T01:25:12.409Z,13.50
2022-11-21T01:27:39.171Z,14.63
2022-11-21T01:30:06.608Z,13.95
2022-11-21T01:32:33.390Z,13.70
2022-11-21T01:35:00.171Z,14.43
2022-11-21T01:37:27.046Z,14.05
2022-11-21T01:39:55.187Z,13.48
2022-11-21T01:42:22.014Z,13.88
2022-11-21T01:44:53.633Z,13.23
2022-11-21T01:47:22.839Z,9.27
2022-11-21T01:49:51.705Z,13.50
2022-11-21T01:52:25.541Z,12.63
2022-11-21T01:54:57.189Z,12.88
2022-11-21T01:57:34.893Z,12.30
2022-11-21T02:00:24.179Z,12.23
2022-11-21T02:02:58.104Z,12.35
2022-11-21T02:05:31.422Z,12.30
2022-11-21T02:08:04.645Z,12.02
2022-11-21T02:10:32.829Z,12.23
2022-11-21T02:13:00.527Z,13.73
2022-11-21T02:15:29.488Z,12.48
2022-11-21T02:17:56.578Z,11.80
2022-11-21T02:20:25.751Z,12.25
2022-11-21T02:23:04.778Z,11.13
2022-11-21T02:25:41.449Z,11.93
2022-11-21T02:28:20.939Z,12.18
2022-11-21T02:30:47.744Z,11.65
2022-11-21T02:33:15.581Z,12.05
2022-11-21T02:35:42.760Z,12.07
2022-11-21T02:38:26.816Z,11.48
2022-11-21T02:41:26.482Z,11.95
2022-11-21T02:44:01.433Z,10.73
2022-11-21T02:46:29.060Z,12.02
2022-11-21T02:48:58.543Z,11.85
2022-11-21T02:51:25.371Z,12.13
2022-11-21T02:53:52.166Z,12.88
2022-11-21T02:56:19.053Z,11.50
2022-11-21T02:58:46.397Z,11.10
2022-11-21T03:01:13.283Z,11.65
2022-11-21T03:03:40.157Z,12.93
2022-11-21T03:06:06.946Z,12.48
2022-11-21T03:08:33.681Z,12.35
2022-11-21T03:11:00.451Z,12.00
2022-11-21T03:13:27.204Z,13.02
2022-11-21T03:15:55.459Z,11.80
2022-11-21T03:18:22.283Z,12.75
2022-11-21T03:20:49.075Z,12.77
2022-11-21T03:23:15.846Z,12.38
2022-11-21T03:25:42.626Z,13.13
2022-11-21T03:28:09.435Z,12.90
2022-11-21T03:30:36.292Z,13.07
2022-11-21T03:33:03.132Z,13.55
2022-11-21T03:35:30.176Z,13.27
2022-11-21T03:37:57.091Z,12.65
2022-11-21T03:40:23.895Z,12.60
2022-11-21T03:42:50.690Z,12.02
2022-11-21T03:45:18.092Z,11.93
2022-11-21T03:47:44.830Z,12.63
2022-11-21T03:50:15.046Z,12.68
2022-11-21T03:52:41.927Z,13.07
2022-11-21T03:55:08.942Z,13.07
2022-11-21T03:57:35.771Z,13.57
2022-11-21T04:00:03.066Z,12.57
2022-11-21T04:02:29.884Z,13.02
2022-11-21T04:04:56.689Z,13.30
2022-11-21T04:07:23.634Z,12.52
2022-11-21T04:09:50.454Z,13.90
2022-11-21T04:12:17.316Z,13.23
2022-11-21T04:14:44.103Z,13.98
2022-11-21T04:17:10.983Z,13.52
2022-11-21T04:19:37.774Z,12.60
2022-11-21T04:22:06.349Z,13.77
2022-11-21T04:24:33.181Z,13.88
2022-11-21T04:27:00.017Z,13.55
2022-11-21T04:29:26.877Z,13.77
2022-11-21T04:31:53.649Z,13.90
2022-11-21T04:34:20.538Z,12.80
2022-11-21T04:36:47.374Z,13.68
2022-11-21T04:39:14.197Z,13.50
2022-11-21T04:41:41.091Z,13.30
2022-11-21T04:44:07.900Z,13.18
2022-11-21T04:46:34.753Z,14.30
2022-11-21T04:49:05.574Z,14.57
2022-11-21T04:51:32.506Z,13.10
2022-11-21T04:53:59.343Z,14.95
2022-11-21T04:56:26.264Z,13.52
2022-11-21T05:02:40.206Z,14.80
2022-11-21T05:05:07.287Z,14.43
2022-11-21T05:07:34.128Z,14.60
2022-11-21T05:10:00.974Z,15.13
2022-11-21T05:12:46.251Z,15.73
2022-11-21T05:15:13.068Z,19.95
2022-11-21T05:17:39.870Z,16.00
2022-11-21T05:20:07.531Z,14.73
2022-11-21T05:22:34.357Z,15.15
2022-11-21T05:25:01.165Z,16.00
2022-11-21T05:27:27.926Z,15.80
2022-11-21T05:29:55.442Z,15.18
2022-11-21T05:32:22.224Z,15.68
2022-11-21T05:34:49.019Z,14.82
2022-11-21T05:37:15.803Z,15.52
2022-11-21T05:39:42.646Z,15.82
2022-11-21T05:42:09.477Z,15.43
2022-11-21T05:44:36.265Z,15.23
2022-11-21T05:47:04.920Z,15.10
2022-11-21T05:49:34.175Z,13.75
2022-11-21T05:52:00.959Z,15.15
2022-11-21T05:54:27.938Z,14.13
2022-11-21T05:56:54.933Z,15.48
2022-11-21T05:59:21.740Z,14.05
2022-11-21T06:02:07.200Z,14.88
2022-11-21T06:04:35.180Z,13.75
2022-11-21T06:07:02.129Z,14.32
2022-11-21T06:09:28.959Z,13.55
2022-11-21T06:11:55.673Z,13.93
2022-11-21T06:14:22.409Z,13.35
2022-11-21T06:16:50.561Z,14.40
2022-11-21T06:19:17.380Z,14.52
2022-11-21T06:21:44.242Z,13.75
2022-11-21T06:24:12.267Z,12.85
2022-11-21T06:26:39.200Z,14.48
2022-11-21T06:29:06.035Z,12.95
2022-11-21T06:31:32.826Z,14.43
2022-11-21T06:33:59.764Z,14.63
2022-11-21T06:36:27.145Z,13.73
2022-11-21T06:38:55.554Z,13.90
2022-11-21T06:41:27.160Z,13.60
2022-11-21T06:43:54.019Z,13.57
2022-11-21T06:46:20.801Z,14.88
2022-11-21T06:48:51.692Z,14.85
2022-11-21T06:51:25.923Z,13.85
2022-11-21T06:53:57.818Z,14.07
2022-11-21T06:56:25.863Z,14.18
2022-11-21T06:58:53.074Z,14.30
2022-11-21T07:01:20.113Z,13.82
2022-11-21T07:03:46.888Z,15.45
2022-11-21T07:06:13.695Z,15.35
2022-11-21T07:08:43.275Z,13.20
2022-11-21T07:11:27.749Z,12.95
2022-11-21T07:13:59.613Z,13.50
2022-11-21T07:16:56.969Z,14.50
2022-11-21T07:19:55.951Z,13.95
2022-11-21T07:22:22.705Z,14.15
2022-11-21T07:24:49.451Z,14.05
2022-11-21T07:27:16.170Z,14.02
2022-11-21T07:29:42.859Z,12.98
2022-11-21T07:32:09.726Z,13.15
2022-11-21T07:34:36.471Z,13.20
2022-11-21T07:37:05.324Z,14.68
2022-11-21T07:39:47.563Z,15.10
2022-11-21T07:42:14.298Z,15.15
2022-11-21T07:44:41.033Z,13.60
2022-11-21T07:47:07.795Z,15.05
2022-11-21T07:49:34.586Z,14.38
2022-11-21T07:52:01.355Z,14.93
2022-11-21T07:54:28.404Z,15.10
2022-11-21T07:56:55.355Z,15.35
2022-11-21T07:59:22.154Z,15.07
2022-11-21T08:01:50.751Z,15.00
2022-11-21T08:04:17.537Z,14.77
2022-11-21T08:06:44.302Z,18.88
2022-11-21T08:09:11.086Z,14.82
2022-11-21T08:11:37.883Z,15.23
2022-11-21T08:14:04.641Z,14.52
2022-11-21T08:16:37.719Z,14.95
2022-11-21T08:19:05.535Z,15.40
2022-11-21T08:21:32.294Z,15.40
2022-11-21T08:23:59.050Z,15.25
2022-11-21T08:26:25.837Z,15.35
2022-11-21T08:28:58.514Z,13.82
2022-11-21T08:31:26.621Z,13.48
2022-11-21T08:34:31.133Z,13.25
2022-11-21T08:36:59.902Z,12.82
2022-11-21T08:39:28.243Z,13.60
2022-11-21T08:42:04.627Z,13.38
2022-11-21T08:44:35.402Z,14.40
2022-11-21T08:47:02.311Z,13.80
2022-11-21T08:49:30.009Z,15.02
2022-11-21T08:51:56.807Z,13.38
2022-11-21T08:54:24.433Z,14.38
2022-11-21T08:56:51.300Z,13.43
2022-11-21T08:59:18.204Z,13.35
2022-11-21T09:01:45.107Z,13.60
2022-11-21T09:04:27.549Z,13.43
2022-11-21T09:07:20.820Z,13.65
2022-11-21T09:09:52.120Z,14.82
2022-11-21T09:12:22.358Z,16.50
2022-11-21T09:15:14.403Z,16.25
2022-11-21T09:17:59.940Z,15.10
2022-11-21T09:20:32.869Z,16.77
2022-11-21T09:23:11.638Z,17.27
2022-11-21T09:25:38.547Z,16.27
2022-11-21T09:28:10.488Z,14.32
2022-11-21T09:30:57.002Z,15.00
2022-11-21T09:33:30.186Z,14.70
2022-11-21T09:36:02.003Z,14.35
2022-11-21T09:38:31.277Z,14.48
2022-11-21T09:41:39.281Z,13.85
2022-11-21T09:44:38.264Z,13.57
2022-11-21T09:47:27.564Z,14.57
2022-11-21T09:50:11.043Z,12.70
2022-11-21T09:56:23.661Z,13.27
2022-11-21T09:59:08.033Z,14.70
2022-11-21T10:01:35.111Z,14.02
2022-11-21T10:04:04.893Z,14.30
2022-11-21T10:07:27.118Z,14.02
2022-11-21T10:10:10.727Z,14.07
2022-11-21T10:13:09.696Z,14.70
2022-11-21T10:15:57.399Z,15.75
2022-11-21T10:22:35.718Z,17.42
2022-11-21T10:25:27.135Z,16.80
2022-11-21T10:28:13.697Z,16.02
2022-11-21T10:30:44.347Z,17.10
2022-11-21T10:33:36.566Z,16.55
2022-11-21T10:36:25.772Z,16.80
2022-11-21T10:38:58.659Z,17.15
2022-11-21T10:41:40.709Z,17.60
2022-11-21T10:44:47.272Z,17.55
2022-11-21T10:47:28.974Z,18.95
2022-11-21T10:50:40.104Z,18.25
2022-11-21T10:53:37.915Z,17.73
2022-11-21T10:56:18.706Z,17.98
2022-11-21T10:58:51.423Z,18.30
2022-11-21T11:04:52.046Z,18.92
2022-11-21T11:07:32.080Z,17.88
2022-11-21T11:10:28.560Z,17.08
2022-11-21T11:20:05.571Z,18.52
2022-11-21T11:27:00.196Z,18.15
2022-11-21T11:32:59.377Z,18.50
2022-11-21T11:35:32.462Z,19.63
2022-11-21T11:38:09.572Z,18.60
2022-11-21T11:40:41.104Z,20.23
2022-11-21T11:44:01.492Z,19.58
2022-11-21T11:46:53.144Z,20.75
2022-11-21T11:49:57.460Z,19.75
2022-11-21T11:52:28.297Z,20.20
2022-11-21T11:55:06.616Z,20.67
2022-11-21T11:57:37.082Z,21.08
2022-11-21T12:00:10.303Z,20.95
2022-11-21T12:03:07.753Z,22.30
2022-11-21T12:05:37.668Z,21.13
2022-11-21T12:08:40.666Z,21.95
2022-11-21T12:11:32.519Z,22.70
2022-11-21T12:14:09.425Z,23.13
2022-11-21T12:16:36.899Z,22.23
2022-11-21T12:19:13.042Z,20.83
2022-11-21T12:21:40.136Z,20.67
2022-11-21T12:24:10.318Z,20.88
2022-11-21T12:26:49.244Z,20.17
2022-11-21T12:29:30.428Z,20.15
2022-11-21T12:32:21.739Z,21.75
2022-11-21T12:34:57.751Z,21.92
2022-11-21T12:37:47.777Z,21.80
2022-11-21T12:40:42.219Z,20.98
2022-11-21T12:43:44.346Z,22.15
2022-11-21T12:46:29.416Z,21.48
2022-11-21T12:49:32.878Z,21.70
2022-11-21T12:52:33.692Z,20.00
2022-11-21T12:55:18.750Z,21.02
2022-11-21T12:58:27.240Z,20.67
2022-11-21T14:01:18.864Z,20.17
2022-11-21T14:03:59.716Z,22.88
2022-11-21T14:06:32.512Z,20.98
2022-11-21T14:09:50.812Z,21.23
2022-11-21T14:12:44.838Z,22.92
2022-11-21T14:15:22.225Z,22.15
2022-11-21T14:17:57.422Z,23.75
2022-11-21T14:20:38.498Z,23.20
2022-11-21T14:23:23.958Z,26.50
2022-11-21T14:26:04.819Z,26.05
2022-11-21T14:28:34.256Z,24.95
2022-11-21T14:31:06.563Z,24.55
2022-11-21T14:33:39.602Z,20.95
2022-11-21T14:36:23.734Z,21.85
2022-11-21T14:39:29.035Z,22.55
2022-11-21T14:41:57.385Z,23.15
2022-11-21T14:44:24.912Z,21.97
2022-11-21T14:47:05.679Z,23.13
2022-11-21T14:49:32.426Z,21.52
2022-11-21T14:52:11.385Z,22.48
2022-11-21T14:55:22.405Z,21.75
2022-11-21T14:57:43.306Z,22.38
2022-11-21T15:00:36.267Z,21.30
2022-11-21T15:03:03.372Z,21.85
2022-11-21T15:05:54.920Z,21.02
2022-11-21T15:14:06.710Z,22.95
2022-11-21T15:16:30.251Z,28.15
2022-11-21T15:18:59.233Z,24.88
2022-11-21T15:21:28.195Z,23.83
2022-11-21T15:23:55.821Z,21.95
2022-11-21T15:26:35.480Z,22.88
2022-11-21T15:29:02.338Z,22.00
2022-11-21T15:31:29.176Z,23.52
2022-11-21T15:37:12.219Z,22.02
2022-11-21T15:39:48.271Z,22.75
2022-11-21T15:42:49.582Z,22.75
2022-11-21T15:48:03.046Z,21.00
2022-11-21T15:50:29.786Z,21.23
2022-11-21T15:52:56.808Z,21.33
2022-11-21T15:55:29.222Z,22.65
2022-11-21T15:57:15.701Z,22.70
2022-11-21T16:00:22.973Z,20.88
2022-11-21T16:02:49.781Z,21.10
2022-11-21T16:05:16.557Z,21.38
2022-11-21T16:07:43.382Z,21.20
2022-11-21T16:10:18.248Z,21.13
2022-11-21T16:12:48.393Z,22.70
2022-11-21T16:15:15.396Z,21.65
2022-11-21T16:17:42.202Z,22.52
2022-11-21T16:20:09.524Z,22.08
2022-11-21T16:22:36.294Z,21.33
2022-11-21T16:25:03.304Z,19.88
2022-11-21T16:27:32.195Z,21.08
2022-11-21T16:29:59.206Z,21.95
2022-11-21T16:32:26.808Z,21.35
2022-11-21T16:34:54.881Z,22.17
2022-11-21T16:37:21.716Z,22.23
2022-11-21T16:39:52.130Z,22.65
2022-11-21T16:42:20.442Z,23.48
2022-11-21T16:44:48.120Z,23.30
2022-11-21T16:47:15.315Z,26.98
2022-11-21T16:49:48.285Z,27.55
2022-11-21T16:52:15.584Z,31.20
2022-11-21T16:54:42.377Z,26.55
2022-11-21T16:57:09.539Z,23.65
2022-11-21T16:59:36.591Z,24.83
2022-11-21T17:02:03.862Z,26.50
2022-11-21T17:04:31.068Z,24.25
2022-11-21T17:06:58.142Z,23.92
2022-11-21T17:09:24.926Z,22.17
2022-11-21T17:11:51.892Z,20.38
2022-11-21T17:14:18.654Z,19.05
2022-11-21T17:16:45.900Z,19.65
2022-11-21T17:19:13.324Z,18.42
2022-11-21T17:21:40.233Z,19.13
2022-11-21T17:24:07.163Z,18.17
2022-11-21T17:26:37.815Z,18.17
2022-11-21T17:29:05.098Z,20.60
2022-11-21T17:31:32.812Z,22.42
2022-11-21T17:34:00.974Z,18.75
2022-11-21T17:36:29.725Z,18.83
2022-11-21T17:38:56.876Z,18.33
2022-11-21T17:41:24.733Z,18.38
2022-11-21T17:43:58.877Z,16.52
2022-11-21T17:46:26.300Z,16.40
2022-11-21T17:48:58.241Z,17.10
2022-11-21T17:53:57.426Z,16.58
2022-11-21T17:56:27.126Z,16.83
2022-11-21T17:58:54.275Z,16.17
2022-11-21T18:01:22.143Z,16.85
2022-11-21T18:03:56.737Z,16.17
2022-11-21T18:06:24.974Z,16.23
2022-11-21T18:08:52.156Z,17.27
2022-11-21T18:11:23.814Z,17.42
2022-11-21T18:13:50.866Z,16.67
2022-11-21T18:16:21.743Z,17.05
2022-11-21T18:18:49.723Z,15.45
2022-11-21T18:21:28.769Z,16.00
2022-11-21T18:23:57.118Z,15.63
2022-11-21T18:26:26.812Z,14.52
2022-11-21T18:29:20.632Z,15.52
2022-11-21T18:31:46.310Z,16.65
2022-11-21T18:34:13.211Z,14.82
2022-11-21T18:36:40.436Z,13.68
2022-11-21T18:39:14.138Z,13.38
2022-11-21T18:41:42.456Z,12.65
2022-11-21T18:44:09.917Z,14.13
2022-11-21T18:46:38.685Z,12.82
2022-11-21T18:49:07.345Z,13.05
2022-11-21T18:51:35.959Z,12.95
2022-11-21T18:54:08.095Z,13.18
2022-11-21T18:56:36.547Z,11.52
2022-11-21T18:59:05.627Z,11.82
2022-11-21T19:01:33.766Z,11.63
2022-11-21T19:04:00.830Z,12.60
2022-11-21T19:06:28.608Z,13.07
2022-11-21T19:08:57.205Z,12.10
2022-11-21T19:11:26.205Z,12.13
2022-11-21T19:13:54.253Z,12.88
2022-11-21T19:16:24.826Z,14.32
2022-11-21T19:21:41.702Z,14.13
2022-11-21T19:24:13.216Z,12.90
2022-11-21T19:26:40.424Z,12.75
2022-11-21T19:29:07.352Z,11.50
2022-11-21T19:31:37.736Z,11.73
2022-11-21T19:34:07.716Z,11.32
2022-11-21T19:36:34.590Z,11.98
2022-11-21T19:39:01.379Z,11.07
2022-11-21T19:41:28.415Z,11.77
2022-11-21T19:43:58.533Z,11.90
2022-11-21T19:46:37.121Z,12.13
2022-11-21T19:49:05.733Z,13.15
2022-11-21T19:51:38.675Z,11.68
2022-11-21T19:54:07.315Z,11.88
2022-11-21T19:56:34.619Z,12.00
2022-11-21T19:59:02.018Z,11.82
2022-11-21T20:01:30.812Z,12.23
2022-11-21T20:04:00.287Z,11.93
2022-11-21T20:06:30.800Z,13.23
2022-11-21T20:09:09.737Z,11.23
2022-11-21T20:11:38.754Z,12.30
2022-11-21T20:14:06.010Z,12.73
2022-11-21T20:16:35.693Z,12.82
2022-11-21T20:19:06.583Z,12.43
2022-11-21T20:21:34.229Z,12.70
2022-11-21T20:24:01.397Z,11.77
2022-11-21T20:26:28.760Z,12.38
2022-11-21T20:28:55.899Z,11.60
2022-11-21T20:31:28.969Z,12.55
2022-11-21T20:34:04.828Z,14.18
2022-11-21T20:36:34.337Z,14.90
2022-11-21T20:39:07.039Z,13.00
2022-11-21T20:41:36.189Z,13.52
2022-11-21T20:46:52.937Z,12.68
2022-11-21T20:49:19.720Z,12.25
2022-11-21T20:54:34.555Z,11.15
2022-11-21T20:57:01.548Z,11.50
2022-11-21T20:59:28.705Z,11.63
2022-11-21T21:01:55.838Z,11.73
2022-11-21T21:04:22.699Z,11.48
2022-11-21T21:06:49.524Z,11.95
2022-11-21T21:09:16.313Z,13.07
2022-11-21T21:11:52.484Z,12.18
2022-11-21T21:14:23.459Z,12.48
2022-11-21T21:16:50.476Z,13.20
2022-11-21T21:19:18.045Z,12.68
2022-11-21T21:21:45.272Z,12.77
2022-11-21T21:24:12.825Z,13.02
2022-11-21T21:26:43.515Z,13.32
2022-11-21T21:29:17.234Z,13.10
2022-11-21T21:31:50.640Z,13.80
2022-11-21T21:34:18.890Z,14.10
2022-11-21T21:36:45.765Z,14.52
2022-11-21T21:39:12.544Z,14.23
2022-11-21T21:41:46.039Z,13.18
2022-11-21T21:44:14.071Z,15.30
2022-11-21T21:46:41.006Z,15.88
2022-11-21T21:49:08.159Z,15.57
2022-11-21T21:51:37.247Z,13.55
2022-11-21T21:54:04.791Z,14.50
2022-11-21T21:56:32.272Z,14.82
2022-11-21T21:58:59.534Z,15.38
2022-11-21T22:01:28.563Z,15.88
2022-11-21T22:03:57.784Z,15.32
2022-11-21T22:06:25.674Z,15.57
2022-11-21T22:08:52.611Z,16.33
2022-11-21T22:11:22.058Z,15.90
2022-11-21T22:13:52.723Z,16.48
2022-11-21T22:16:20.061Z,16.83
2022-11-21T22:18:50.406Z,16.73
2022-11-21T22:21:24.651Z,17.13
2022-11-21T22:24:17.736Z,17.73
2022-11-21T22:26:38.680Z,17.48
2022-11-21T22:29:05.677Z,19.35
2022-11-21T22:31:33.004Z,17.48
2022-11-21T22:34:00.433Z,18.85
2022-11-21T22:36:27.250Z,18.70
2022-11-21T22:38:54.925Z,18.85
2022-11-21T22:41:26.777Z,19.40
2022-11-21T22:43:58.873Z,19.63
2022-11-21T22:46:27.325Z,20.92
2022-11-21T22:48:54.814Z,19.05
2022-11-21T22:51:27.593Z,21.50
2022-11-21T22:53:54.386Z,21.88
2022-11-21T22:56:23.715Z,20.92
2022-11-21T22:58:51.050Z,21.58
2022-11-21T23:01:23.302Z,21.83
2022-11-21T23:03:50.216Z,22.25
2022-11-21T23:06:19.330Z,21.27
2022-11-21T23:08:47.096Z,21.90
2022-11-21T23:11:19.760Z,22.92
2022-11-21T23:13:47.885Z,22.75
2022-11-21T23:16:16.005Z,22.00
2022-11-21T23:18:43.178Z,22.90
2022-11-21T23:21:11.199Z,23.75
2022-11-21T23:23:38.107Z,22.52
2022-11-21T23:26:05.905Z,24.15
2022-11-21T23:28:32.803Z,23.10
2022-11-21T23:30:59.702Z,24.35
2022-11-21T23:33:26.493Z,24.00
2022-11-21T23:35:53.278Z,23.20
2022-11-21T23:38:20.841Z,25.60
2022-11-21T23:40:48.860Z,26.55
2022-11-21T23:43:17.026Z,24.45
2022-11-21T23:45:45.536Z,25.23
2022-11-21T23:48:12.349Z,24.70
2022-11-21T23:50:39.216Z,26.27
2022-11-21T23:53:06.072Z,24.85
2022-11-21T23:55:32.959Z,26.60
2022-11-21T23:57:59.834Z,25.17
